Time;durP1;ratioP1;P1;durP2;ratioP2;P2;SDS_P1;SDS_P2;PMS_P1;PMS_P2;Temp;Humidity;BMP_temperature;BMP_pressure;BME280_temperature;BME280_humidity;BME280_pressure;Samples;Min_cycle;Max_cycle;Signal;HPM_P1;HPM_P2
2023/04/24 00:00:40;;;;;;;;;;;11.10;99.90;;;;;;5038470;28;20424;-84
2023/04/24 00:03:06;;;;;;;;;;;11.00;99.90;;;;;;5033298;28;19905;-90
2023/04/24 00:05:32;;;;;;;;;;;11.10;99.90;;;;;;5046488;28;20356;-84
2023/04/24 00:07:58;;;;;;;;;;;11.00;99.90;;;;;;5050750;28;19923;-89
2023/04/24 00:10:24;;;;;;;;;;;11.00;99.90;;;;;;5045195;28;20034;-89
2023/04/24 00:12:49;;;;;;;;;;;11.10;99.90;;;;;;5045147;28;20082;-87
2023/04/24 00:15:15;;;;;;;;;;;11.10;99.90;;;;;;5047577;28;19916;-89
2023/04/24 00:17:43;;;;;;;;;;;11.10;99.90;;;;;;5019692;28;20058;-90
2023/04/24 00:20:10;;;;;;;;;;;11.10;99.90;;;;;;5035121;28;20417;-87
2023/04/24 00:22:35;;;;;;;;;;;11.10;99.90;;;;;;5039948;28;19916;-92
2023/04/24 00:25:01;;;;;;;;;;;11.10;99.90;;;;;;5031118;28;19905;-91
2023/04/24 00:27:26;;;;;;;;;;;11.10;99.90;;;;;;5037041;28;19909;-91
2023/04/24 00:29:52;;;;;;;;;;;11.10;99.90;;;;;;5038278;28;20528;-90
2023/04/24 00:32:20;;;;;;;;;;;11.10;99.90;;;;;;5036885;28;20864;-90
2023/04/24 00:34:45;;;;;;;;;;;11.10;99.90;;;;;;5038034;28;19909;-89
2023/04/24 00:37:18;;;;;;;;;;;11.10;99.90;;;;;;5038658;28;19927;-89
2023/04/24 00:39:43;;;;;;;;;;;11.00;99.90;;;;;;5031276;28;19905;-91
2023/04/24 00:42:09;;;;;;;;;;;11.00;99.90;;;;;;5032067;28;19932;-80
2023/04/24 00:44:35;;;;;;;;;;;11.10;99.90;;;;;;5032882;28;19917;-87
2023/04/24 00:47:01;;;;;;;;;;;11.10;99.90;;;;;;5041254;28;19905;-91
2023/04/24 00:49:26;;;;;;;;;;;11.10;99.90;;;;;;5039833;28;20363;-86
2023/04/24 00:51:53;;;;;;;;;;;11.20;99.90;;;;;;5026195;28;19909;-81
2023/04/24 00:54:19;;;;;;;;;;;11.20;99.90;;;;;;5041214;28;19960;-90
2023/04/24 00:56:47;;;;;;;;;;;11.20;99.90;;;;;;5036307;28;19912;-90
2023/04/24 00:59:13;;;;;;;;;;;11.20;99.90;;;;;;5035175;28;19904;-91
2023/04/24 01:01:41;;;;;;;;;;;11.20;99.90;;;;;;5027641;28;19921;-89
2023/04/24 01:04:07;;;;;;;;;;;11.20;99.90;;;;;;5046670;28;19939;-89
2023/04/24 01:06:33;;;;;;;;;;;11.20;99.90;;;;;;5037607;28;19909;-90
2023/04/24 01:09:00;;;;;;;;;;;11.20;99.90;;;;;;5038304;28;19959;-87
2023/04/24 01:11:25;;;;;;;;;;;11.10;99.90;;;;;;5035687;28;19908;-84
2023/04/24 01:13:51;;;;;;;;;;;11.10;99.90;;;;;;5033903;28;19912;-85
2023/04/24 01:16:17;;;;;;;;;;;11.10;99.90;;;;;;5036871;28;19982;-81
2023/04/24 01:18:43;;;;;;;;;;;11.00;99.90;;;;;;5036657;28;19919;-81
2023/04/24 01:21:11;;;;;;;;;;;11.10;99.90;;;;;;5037462;28;19933;-80
2023/04/24 01:23:37;;;;;;;;;;;11.10;99.90;;;;;;5054578;28;19978;-89
2023/04/24 01:26:02;;;;;;;;;;;11.00;99.90;;;;;;5034643;28;20165;-87
2023/04/24 01:28:28;;;;;;;;;;;11.00;99.90;;;;;;5030181;28;19909;-86
2023/04/24 01:30:54;;;;;;;;;;;11.10;99.90;;;;;;5035009;28;19912;-90
2023/04/24 01:33:20;;;;;;;;;;;11.00;99.90;;;;;;5033682;28;20015;-82
2023/04/24 01:35:46;;;;;;;;;;;11.00;99.90;;;;;;5029724;28;19917;-89
2023/04/24 01:38:12;;;;;;;;;;;11.00;99.90;;;;;;5033684;28;19928;-88
2023/04/24 01:40:37;;;;;;;;;;;11.00;99.90;;;;;;5022614;28;19924;-85
2023/04/24 01:43:03;;;;;;;;;;;11.00;99.90;;;;;;5032858;28;19970;-81
2023/04/24 01:45:29;;;;;;;;;;;11.00;99.90;;;;;;5034660;28;19916;-91
2023/04/24 01:47:54;;;;;;;;;;;11.00;99.90;;;;;;5031333;28;19913;-92
2023/04/24 01:50:20;;;;;;;;;;;11.00;99.90;;;;;;5034383;28;19905;-91
2023/04/24 01:52:45;;;;;;;;;;;11.00;99.90;;;;;;5028660;28;19908;-81
2023/04/24 01:55:11;;;;;;;;;;;11.10;99.90;;;;;;5036279;28;19912;-86
2023/04/24 01:57:44;;;;;;;;;;;11.00;99.90;;;;;;5035979;28;20127;-95
2023/04/24 02:00:11;;;;;;;;;;;11.00;99.90;;;;;;5028977;28;20003;-84
2023/04/24 02:02:36;;;;;;;;;;;10.90;99.90;;;;;;5040559;28;19909;-86
2023/04/24 02:05:02;;;;;;;;;;;11.00;99.90;;;;;;5030538;28;19911;-84
2023/04/24 02:07:28;;;;;;;;;;;11.00;99.90;;;;;;5035501;28;19916;-87
2023/04/24 02:09:56;;;;;;;;;;;10.90;99.90;;;;;;5033020;28;19909;-88
2023/04/24 02:12:21;;;;;;;;;;;10.90;99.90;;;;;;5030812;28;19913;-87
2023/04/24 02:14:47;;;;;;;;;;;11.00;99.90;;;;;;5033530;28;19920;-87
2023/04/24 02:17:13;;;;;;;;;;;11.00;99.90;;;;;;5031376;28;19928;-83
2023/04/24 02:19:39;;;;;;;;;;;10.80;99.90;;;;;;5023542;28;19908;-82
2023/04/24 02:22:04;;;;;;;;;;;10.80;99.90;;;;;;5013692;28;19909;-91
2023/04/24 02:24:30;;;;;;;;;;;10.90;99.90;;;;;;5022260;28;19905;-88
2023/04/24 02:26:55;;;;;;;;;;;10.80;99.90;;;;;;5016408;28;19999;-84
2023/04/24 02:29:21;;;;;;;;;;;10.80;99.90;;;;;;5026919;28;20002;-87
2023/04/24 02:31:46;;;;;;;;;;;10.70;99.90;;;;;;5017889;28;19990;-87
2023/04/24 02:34:12;;;;;;;;;;;10.80;99.90;;;;;;5035134;28;19984;-88
2023/04/24 02:36:37;;;;;;;;;;;10.80;99.90;;;;;;5033252;28;19905;-88
2023/04/24 02:39:03;;;;;;;;;;;10.80;99.90;;;;;;5032243;28;19905;-89
2023/04/24 02:41:31;;;;;;;;;;;10.80;99.90;;;;;;5033788;28;20266;-86
2023/04/24 02:43:57;;;;;;;;;;;10.80;99.90;;;;;;5041157;28;19964;-86
2023/04/24 02:46:23;;;;;;;;;;;10.80;99.90;;;;;;5046890;28;19916;-86
2023/04/24 02:48:48;;;;;;;;;;;10.70;99.90;;;;;;5034156;28;19936;-85
2023/04/24 02:51:14;;;;;;;;;;;10.80;99.90;;;;;;5035883;28;19913;-86
2023/04/24 02:53:39;;;;;;;;;;;10.80;99.90;;;;;;5046953;28;19897;-82
2023/04/24 02:56:05;;;;;;;;;;;10.80;99.90;;;;;;5028929;28;19952;-80
2023/04/24 02:58:30;;;;;;;;;;;10.80;99.90;;;;;;5030964;28;20031;-87
2023/04/24 03:00:56;;;;;;;;;;;10.80;99.90;;;;;;5036608;28;19908;-85
2023/04/24 03:03:22;;;;;;;;;;;10.80;99.90;;;;;;5036714;28;20330;-96
2023/04/24 03:05:47;;;;;;;;;;;10.80;99.90;;;;;;5032161;28;19905;-84
2023/04/24 03:08:14;;;;;;;;;;;10.80;99.90;;;;;;5030761;28;19912;-84
2023/04/24 03:10:39;;;;;;;;;;;10.90;99.90;;;;;;5040170;28;19948;-89
2023/04/24 03:13:05;;;;;;;;;;;10.80;99.90;;;;;;5047091;28;19929;-86
2023/04/24 03:15:31;;;;;;;;;;;10.60;99.90;;;;;;5044412;28;19913;-88
2023/04/24 03:17:56;;;;;;;;;;;10.80;99.90;;;;;;5038550;28;20356;-92
2023/04/24 03:20:22;;;;;;;;;;;10.80;99.90;;;;;;5032391;28;19936;-84
2023/04/24 03:22:47;;;;;;;;;;;10.70;99.90;;;;;;5042375;28;19911;-84
2023/04/24 03:25:13;;;;;;;;;;;10.70;99.90;;;;;;5043581;28;19913;-86
2023/04/24 03:27:39;;;;;;;;;;;10.70;99.90;;;;;;5292619;22;20414;-84
2023/04/24 03:30:05;;;;;;;;;;;10.50;99.90;;;;;;5026595;28;19935;-90
2023/04/24 03:32:39;;;;;;;;;;;10.60;99.90;;;;;;5013640;28;19909;-81
2023/04/24 03:35:06;;;;;;;;;;;10.60;99.90;;;;;;5011619;28;19917;-88
2023/04/24 03:37:31;;;;;;;;;;;10.70;99.90;;;;;;5020861;28;19910;-87
2023/04/24 03:39:57;;;;;;;;;;;10.70;99.90;;;;;;5015073;28;20296;-84
2023/04/24 03:42:22;;;;;;;;;;;10.70;99.90;;;;;;5031225;28;19909;-87
2023/04/24 03:44:48;;;;;;;;;;;10.70;99.90;;;;;;5022183;28;19996;-87
2023/04/24 03:47:13;;;;;;;;;;;10.70;99.90;;;;;;5004102;28;19908;-87
2023/04/24 03:49:39;;;;;;;;;;;10.80;99.90;;;;;;5023052;28;20299;-85
2023/04/24 03:52:04;;;;;;;;;;;10.70;99.90;;;;;;5002602;28;20435;-84
2023/04/24 03:54:30;;;;;;;;;;;10.70;99.90;;;;;;5010643;28;19913;-82
2023/04/24 03:56:55;;;;;;;;;;;10.70;99.90;;;;;;5023200;28;19963;-89
2023/04/24 03:59:21;;;;;;;;;;;10.70;99.90;;;;;;5024169;28;19901;-85
2023/04/24 04:01:46;;;;;;;;;;;10.70;99.90;;;;;;5039984;28;19921;-83
2023/04/24 04:04:12;;;;;;;;;;;10.70;99.90;;;;;;5014279;28;20269;-81
2023/04/24 04:06:37;;;;;;;;;;;10.70;99.90;;;;;;5024287;28;20008;-84
2023/04/24 04:09:03;;;;;;;;;;;10.70;99.90;;;;;;5024423;28;19936;-82
2023/04/24 04:11:29;;;;;;;;;;;10.70;99.90;;;;;;5016786;28;19969;-86
2023/04/24 04:13:55;;;;;;;;;;;10.70;99.90;;;;;;5019470;28;19980;-85
2023/04/24 04:16:20;;;;;;;;;;;10.70;99.90;;;;;;5019875;28;20296;-88
2023/04/24 04:18:46;;;;;;;;;;;10.70;99.90;;;;;;5027388;28;19919;-89
2023/04/24 04:21:11;;;;;;;;;;;10.70;99.90;;;;;;5012618;28;19916;-88
2023/04/24 04:23:37;;;;;;;;;;;10.80;99.90;;;;;;5014131;28;19905;-87
2023/04/24 04:26:03;;;;;;;;;;;10.80;99.90;;;;;;5017402;28;19928;-85
2023/04/24 04:28:30;;;;;;;;;;;10.90;99.90;;;;;;5009791;28;20440;-86
2023/04/24 04:30:57;;;;;;;;;;;10.80;99.90;;;;;;5009581;28;19908;-88
2023/04/24 04:33:25;;;;;;;;;;;10.80;99.90;;;;;;5011746;28;19909;-86
2023/04/24 04:35:56;;;;;;;;;;;10.80;99.90;;;;;;5010473;28;19909;-86
2023/04/24 04:38:22;;;;;;;;;;;10.90;99.90;;;;;;5015106;28;19971;-94
2023/04/24 04:40:56;;;;;;;;;;;10.80;99.90;;;;;;5035279;28;19996;-90
2023/04/24 04:43:22;;;;;;;;;;;10.80;99.90;;;;;;5028161;28;19916;-89
2023/04/24 04:45:51;;;;;;;;;;;10.70;99.90;;;;;;5017755;28;19905;-95
2023/04/24 04:48:18;;;;;;;;;;;10.70;99.90;;;;;;5010936;28;19928;-86
2023/04/24 04:50:44;;;;;;;;;;;10.70;99.90;;;;;;5020416;28;19909;-86
2023/04/24 04:53:09;;;;;;;;;;;10.70;99.90;;;;;;5011328;28;19913;-87
2023/04/24 04:55:35;;;;;;;;;;;10.60;99.90;;;;;;5020655;28;19913;-86
2023/04/24 04:58:01;;;;;;;;;;;10.60;99.90;;;;;;5032147;28;19913;-84
2023/04/24 05:00:27;;;;;;;;;;;10.50;99.90;;;;;;5020999;28;19905;-83
2023/04/24 05:02:52;;;;;;;;;;;10.50;99.90;;;;;;5026719;28;19913;-81
2023/04/24 05:05:35;;;;;;;;;;;10.40;99.90;;;;;;5024203;28;20617;-81
2023/04/24 05:08:01;;;;;;;;;;;10.50;99.90;;;;;;5030499;28;20360;-93
2023/04/24 05:10:27;;;;;;;;;;;10.40;99.90;;;;;;5016714;28;19916;-80
2023/04/24 05:12:52;;;;;;;;;;;10.40;99.90;;;;;;5032262;28;19905;-82
2023/04/24 05:15:20;;;;;;;;;;;10.40;99.90;;;;;;5012355;28;20040;-83
2023/04/24 05:17:45;;;;;;;;;;;10.40;99.90;;;;;;5028128;28;20285;-91
2023/04/24 05:20:11;;;;;;;;;;;10.40;99.90;;;;;;5030215;28;19905;-91
2023/04/24 05:22:47;;;;;;;;;;;10.50;99.90;;;;;;5015568;28;19916;-90
2023/04/24 05:25:13;;;;;;;;;;;10.40;99.90;;;;;;5022333;28;20037;-92
2023/04/24 05:27:39;;;;;;;;;;;10.50;99.90;;;;;;5028613;28;20314;-88
2023/04/24 05:30:07;;;;;;;;;;;10.60;99.90;;;;;;5011712;28;19909;-93
2023/04/24 05:32:33;;;;;;;;;;;10.60;99.90;;;;;;5010462;28;19916;-88
2023/04/24 05:34:58;;;;;;;;;;;10.60;99.90;;;;;;5020062;28;19917;-87
2023/04/24 05:37:24;;;;;;;;;;;10.60;99.90;;;;;;5016295;28;19916;-83
2023/04/24 05:39:50;;;;;;;;;;;10.70;99.90;;;;;;5008345;28;19905;-89
2023/04/24 05:42:15;;;;;;;;;;;10.70;99.90;;;;;;5014876;28;19981;-84
2023/04/24 05:44:41;;;;;;;;;;;10.60;99.90;;;;;;5030048;28;19916;-92
2023/04/24 05:47:06;;;;;;;;;;;10.60;99.90;;;;;;5012995;28;20000;-80
2023/04/24 05:49:32;;;;;;;;;;;10.50;99.90;;;;;;5029010;28;19912;-87
2023/04/24 05:51:57;;;;;;;;;;;10.60;99.90;;;;;;5009902;28;19909;-80
2023/04/24 05:54:23;;;;;;;;;;;10.50;99.90;;;;;;5010514;28;19920;-95
2023/04/24 05:56:51;;;;;;;;;;;10.40;99.90;;;;;;5011044;28;19913;-92
2023/04/24 05:59:16;;;;;;;;;;;10.60;99.90;;;;;;5006222;28;19920;-79
2023/04/24 06:01:42;;;;;;;;;;;10.50;99.90;;;;;;5025794;28;19913;-90
2023/04/24 06:04:10;;;;;;;;;;;10.40;99.90;;;;;;5028763;28;19909;-85
2023/04/24 06:06:36;;;;;;;;;;;10.30;99.90;;;;;;5025370;28;19913;-83
2023/04/24 06:09:09;;;;;;;;;;;10.40;99.90;;;;;;5012450;28;19905;-82
2023/04/24 06:11:35;;;;;;;;;;;10.40;99.90;;;;;;5029168;28;19992;-85
2023/04/24 06:14:00;;;;;;;;;;;10.40;99.90;;;;;;5020116;28;20023;-83
2023/04/24 06:16:26;;;;;;;;;;;10.30;99.90;;;;;;5031425;28;19952;-92
2023/04/24 06:18:51;;;;;;;;;;;10.40;99.90;;;;;;5018433;28;19909;-85
2023/04/24 06:21:17;;;;;;;;;;;10.30;99.90;;;;;;5042739;28;20011;-86
2023/04/24 06:23:42;;;;;;;;;;;10.30;99.90;;;;;;5029669;28;19952;-95
2023/04/24 06:26:08;;;;;;;;;;;10.40;99.90;;;;;;5024341;28;19909;-87
2023/04/24 06:28:34;;;;;;;;;;;10.30;99.90;;;;;;5031069;28;19913;-94
2023/04/24 06:31:00;;;;;;;;;;;10.40;99.90;;;;;;5016127;28;19995;-93
2023/04/24 06:33:35;;;;;;;;;;;10.40;99.90;;;;;;5032035;28;19944;-84
2023/04/24 06:36:00;;;;;;;;;;;10.40;99.90;;;;;;5012094;28;19917;-85
2023/04/24 06:38:26;;;;;;;;;;;10.40;99.90;;;;;;5037683;28;19893;-86
2023/04/24 06:40:51;;;;;;;;;;;10.40;99.90;;;;;;5048097;28;19901;-85
2023/04/24 06:43:17;;;;;;;;;;;10.30;99.90;;;;;;5023578;28;19905;-85
2023/04/24 06:45:43;;;;;;;;;;;10.30;99.90;;;;;;5045611;28;19939;-89
2023/04/24 06:48:09;;;;;;;;;;;10.30;99.90;;;;;;5025324;28;20367;-88
2023/04/24 06:50:35;;;;;;;;;;;10.30;99.90;;;;;;5015584;28;19909;-86
2023/04/24 06:53:00;;;;;;;;;;;10.20;99.90;;;;;;5017788;28;19909;-83
2023/04/24 06:55:26;;;;;;;;;;;10.20;99.90;;;;;;5029725;28;19924;-88
2023/04/24 06:57:51;;;;;;;;;;;10.20;99.90;;;;;;5018071;28;19940;-79
2023/04/24 07:00:17;;;;;;;;;;;10.20;99.90;;;;;;5007731;28;19905;-84
2023/04/24 07:02:43;;;;;;;;;;;10.20;99.90;;;;;;5011749;28;19928;-84
2023/04/24 07:05:08;;;;;;;;;;;10.30;99.90;;;;;;5014337;28;19913;-90
2023/04/24 07:07:34;;;;;;;;;;;10.30;99.90;;;;;;5018255;28;19955;-87
2023/04/24 07:10:03;;;;;;;;;;;10.40;99.90;;;;;;5016701;28;20008;-88
2023/04/24 07:12:29;;;;;;;;;;;10.40;99.90;;;;;;5018137;28;19913;-91
2023/04/24 07:14:55;;;;;;;;;;;10.50;99.90;;;;;;5012696;28;19975;-87
2023/04/24 07:17:20;;;;;;;;;;;10.60;99.90;;;;;;5018931;28;19952;-85
2023/04/24 07:19:46;;;;;;;;;;;10.70;99.90;;;;;;5020957;28;19920;-81
2023/04/24 07:22:16;;;;;;;;;;;10.60;99.90;;;;;;5012157;28;19953;-82
2023/04/24 07:24:51;;;;;;;;;;;10.70;99.90;;;;;;5028333;28;19909;-84
2023/04/24 07:27:16;;;;;;;;;;;10.70;99.90;;;;;;5029011;28;19905;-89
2023/04/24 07:29:42;;;;;;;;;;;10.70;99.90;;;;;;5024289;28;20383;-88
2023/04/24 07:32:07;;;;;;;;;;;10.80;99.90;;;;;;5011102;28;19918;-83
2023/04/24 07:34:33;;;;;;;;;;;10.80;99.90;;;;;;5027649;28;19909;-89
2023/04/24 07:36:59;;;;;;;;;;;10.80;99.90;;;;;;5017926;28;19921;-85
2023/04/24 07:39:32;;;;;;;;;;;10.80;99.90;;;;;;5017836;28;19947;-85
2023/04/24 07:41:59;;;;;;;;;;;10.80;99.90;;;;;;5011558;28;19959;-88
2023/04/24 07:44:24;;;;;;;;;;;10.80;99.90;;;;;;5015194;28;19937;-92
2023/04/24 07:46:50;;;;;;;;;;;10.70;99.90;;;;;;5015631;28;19945;-90
2023/04/24 07:49:16;;;;;;;;;;;10.60;99.90;;;;;;5008760;28;19905;-89
2023/04/24 07:51:41;;;;;;;;;;;10.60;99.90;;;;;;5013741;28;19958;-91
2023/04/24 07:54:07;;;;;;;;;;;10.60;99.90;;;;;;5031359;28;19924;-84
2023/04/24 07:56:33;;;;;;;;;;;10.50;99.90;;;;;;5031586;28;19909;-84
2023/04/24 07:59:00;;;;;;;;;;;10.50;99.90;;;;;;5011451;28;20483;-86
2023/04/24 08:01:26;;;;;;;;;;;10.50;99.90;;;;;;5020190;28;19909;-84
2023/04/24 08:03:52;;;;;;;;;;;10.50;99.90;;;;;;5021321;28;20413;-84
2023/04/24 08:06:17;;;;;;;;;;;10.50;99.90;;;;;;5014915;28;20352;-92
2023/04/24 08:08:43;;;;;;;;;;;10.50;99.90;;;;;;5011843;28;19906;-84
2023/04/24 08:11:09;;;;;;;;;;;10.40;99.90;;;;;;5031559;28;19990;-85
2023/04/24 08:13:34;;;;;;;;;;;10.40;99.90;;;;;;5023042;28;19913;-84
2023/04/24 08:16:00;;;;;;;;;;;10.50;99.90;;;;;;5021800;28;19948;-85
2023/04/24 08:18:26;;;;;;;;;;;10.50;99.90;;;;;;5029577;28;20004;-85
2023/04/24 08:20:51;;;;;;;;;;;10.60;99.90;;;;;;5013834;28;19915;-86
2023/04/24 08:23:17;;;;;;;;;;;10.70;99.90;;;;;;5029263;28;19936;-85
2023/04/24 08:25:42;;;;;;;;;;;10.80;99.90;;;;;;5009389;28;19927;-85
2023/04/24 08:28:09;;;;;;;;;;;10.80;99.90;;;;;;5028939;28;20472;-85
2023/04/24 08:30:35;;;;;;;;;;;10.80;99.90;;;;;;5029290;28;19909;-84
2023/04/24 08:33:00;;;;;;;;;;;10.80;99.90;;;;;;5030515;28;19934;-84
2023/04/24 08:35:26;;;;;;;;;;;10.90;99.90;;;;;;5013296;28;20004;-86
2023/04/24 08:37:52;;;;;;;;;;;11.00;99.90;;;;;;5018362;28;20419;-86
2023/04/24 08:40:19;;;;;;;;;;;10.90;99.90;;;;;;5027920;28;19908;-81
2023/04/24 08:42:44;;;;;;;;;;;11.00;99.90;;;;;;5030921;28;19916;-93
2023/04/24 08:45:11;;;;;;;;;;;10.90;99.90;;;;;;5008695;28;19913;-90
2023/04/24 08:47:37;;;;;;;;;;;11.00;99.90;;;;;;5014388;28;19932;-88
2023/04/24 08:50:05;;;;;;;;;;;11.00;99.90;;;;;;5015164;28;19920;-83
2023/04/24 08:52:32;;;;;;;;;;;10.90;99.90;;;;;;5010809;28;19988;-86
2023/04/24 08:54:58;;;;;;;;;;;10.90;99.90;;;;;;5010421;28;19920;-83
2023/04/24 08:57:44;;;;;;;;;;;10.80;99.90;;;;;;5012978;28;19913;-82
2023/04/24 09:00:10;;;;;;;;;;;10.90;99.90;;;;;;5029754;28;19965;-85
2023/04/24 09:02:36;;;;;;;;;;;10.90;99.90;;;;;;5021245;28;20012;-83
2023/04/24 09:05:05;;;;;;;;;;;10.80;99.90;;;;;;5009922;28;19905;-86
2023/04/24 09:07:32;;;;;;;;;;;10.80;99.90;;;;;;5030192;28;19908;-87
2023/04/24 09:09:58;;;;;;;;;;;10.80;99.90;;;;;;5012739;28;19995;-84
2023/04/24 09:12:23;;;;;;;;;;;10.70;99.90;;;;;;5031585;28;19909;-81
2023/04/24 09:14:49;;;;;;;;;;;10.70;99.90;;;;;;5036516;28;19921;-85
2023/04/24 09:17:15;;;;;;;;;;;10.70;99.90;;;;;;5033011;28;19916;-79
2023/04/24 09:19:40;;;;;;;;;;;10.60;99.90;;;;;;5009512;28;19909;-85
2023/04/24 09:22:06;;;;;;;;;;;10.60;99.90;;;;;;5016377;28;20348;-85
2023/04/24 09:24:33;;;;;;;;;;;10.50;99.90;;;;;;5009379;28;20003;-83
2023/04/24 09:27:06;;;;;;;;;;;10.50;99.90;;;;;;5007309;28;19920;-76
2023/04/24 09:29:32;;;;;;;;;;;10.40;99.90;;;;;;5005870;28;20427;-79
2023/04/24 09:31:58;;;;;;;;;;;10.30;99.90;;;;;;5008757;28;20352;-82
2023/04/24 09:34:25;;;;;;;;;;;10.30;99.90;;;;;;5013712;28;19931;-82
2023/04/24 09:36:51;;;;;;;;;;;10.40;99.90;;;;;;5027651;28;19971;-82
2023/04/24 09:39:20;;;;;;;;;;;10.40;99.90;;;;;;5026655;28;19909;-85
2023/04/24 09:41:49;;;;;;;;;;;10.30;99.90;;;;;;5008956;28;19971;-83
2023/04/24 09:44:22;;;;;;;;;;;10.30;99.90;;;;;;5028293;28;19893;-94
2023/04/24 09:46:51;;;;;;;;;;;10.20;99.90;;;;;;5017752;28;19967;-88
2023/04/24 09:49:21;;;;;;;;;;;10.30;99.90;;;;;;5027377;28;20341;-81
2023/04/24 09:51:47;;;;;;;;;;;10.30;99.90;;;;;;5001217;28;20036;-83
2023/04/24 09:54:14;;;;;;;;;;;10.30;99.90;;;;;;5029980;28;20295;-88
2023/04/24 09:56:42;;;;;;;;;;;10.40;99.90;;;;;;5018855;28;20156;-92
2023/04/24 09:59:07;;;;;;;;;;;10.40;99.90;;;;;;5031102;28;20231;-85
2023/04/24 10:01:33;;;;;;;;;;;10.40;99.90;;;;;;5047111;28;19909;-82
2023/04/24 10:03:59;;;;;;;;;;;10.40;99.90;;;;;;5035974;28;19913;-82
2023/04/24 10:06:32;;;;;;;;;;;10.30;99.90;;;;;;5009898;28;19909;-85
2023/04/24 10:08:58;;;;;;;;;;;10.30;99.90;;;;;;5025407;28;19989;-84
2023/04/24 10:11:26;;;;;;;;;;;10.30;99.90;;;;;;5014683;28;19905;-84
2023/04/24 10:13:52;;;;;;;;;;;10.30;99.90;;;;;;5031242;28;19989;-89
2023/04/24 10:16:18;;;;;;;;;;;10.30;99.90;;;;;;5026074;28;19959;-89
2023/04/24 10:18:44;;;;;;;;;;;10.30;99.90;;;;;;5012264;28;19905;-89
2023/04/24 10:21:10;;;;;;;;;;;10.20;99.90;;;;;;5027796;28;19916;-86
2023/04/24 10:23:35;;;;;;;;;;;10.10;99.90;;;;;;5023199;28;20012;-78
2023/04/24 10:26:01;;;;;;;;;;;10.00;99.90;;;;;;5023070;28;19913;-79
2023/04/24 10:28:27;;;;;;;;;;;10.10;99.90;;;;;;5023609;28;20343;-79
2023/04/24 10:30:54;;;;;;;;;;;10.20;99.90;;;;;;5012577;28;19909;-79
2023/04/24 10:33:21;;;;;;;;;;;10.20;99.90;;;;;;5007132;28;19912;-78
2023/04/24 10:35:48;;;;;;;;;;;10.20;99.90;;;;;;5024592;28;19916;-79
2023/04/24 10:38:16;;;;;;;;;;;10.30;99.90;;;;;;5006694;28;19912;-81
2023/04/24 10:40:42;;;;;;;;;;;10.30;99.90;;;;;;5023210;28;19909;-81
2023/04/24 10:43:10;;;;;;;;;;;10.20;99.90;;;;;;5023694;28;20242;-79
2023/04/24 10:45:36;;;;;;;;;;;10.10;99.90;;;;;;5007743;28;19912;-79
2023/04/24 10:48:03;;;;;;;;;;;10.10;99.90;;;;;;5024111;28;19913;-78
2023/04/24 10:50:30;;;;;;;;;;;10.20;99.90;;;;;;5021827;28;19913;-78
2023/04/24 10:53:06;;;;;;;;;;;10.40;99.90;;;;;;5028127;28;19905;-92
2023/04/24 10:55:42;;;;;;;;;;;10.60;99.90;;;;;;5016516;28;19947;-79
2023/04/24 10:58:07;;;;;;;;;;;10.70;99.90;;;;;;5028994;28;20376;-79
2023/04/24 11:00:35;;;;;;;;;;;11.10;99.90;;;;;;5020187;28;19944;-79
2023/04/24 11:03:04;;;;;;;;;;;11.30;99.90;;;;;;4996813;28;20423;-77
2023/04/24 11:05:55;;;;;;;;;;;11.60;99.90;;;;;;5023399;28;19931;-75
2023/04/24 11:08:22;;;;;;;;;;;11.70;99.90;;;;;;5019960;28;19917;-82
2023/04/24 11:11:02;;;;;;;;;;;11.70;99.90;;;;;;5024636;28;19909;-81
2023/04/24 11:13:48;;;;;;;;;;;11.70;99.90;;;;;;5028654;28;19963;-84
2023/04/24 11:16:14;;;;;;;;;;;11.70;99.90;;;;;;5027474;28;19920;-83
2023/04/24 11:18:45;;;;;;;;;;;11.80;99.90;;;;;;5027859;28;19988;-89
2023/04/24 11:21:11;;;;;;;;;;;11.80;99.90;;;;;;5011286;28;20004;-86
2023/04/24 11:23:37;;;;;;;;;;;12.00;99.90;;;;;;5032878;28;19908;-86
2023/04/24 11:26:13;;;;;;;;;;;11.80;99.90;;;;;;5023051;28;19920;-89
2023/04/24 11:28:51;;;;;;;;;;;11.60;99.90;;;;;;5031319;28;19927;-87
2023/04/24 11:31:38;;;;;;;;;;;11.60;99.90;;;;;;5030510;28;19912;-81
2023/04/24 11:34:07;;;;;;;;;;;11.50;99.90;;;;;;5012421;28;19909;-77
2023/04/24 11:36:33;;;;;;;;;;;11.40;99.90;;;;;;5026789;28;19925;-80
2023/04/24 11:38:59;;;;;;;;;;;11.40;99.90;;;;;;5016571;28;20265;-78
2023/04/24 11:41:25;;;;;;;;;;;11.70;99.90;;;;;;5043369;28;19932;-88
2023/04/24 11:43:59;;;;;;;;;;;11.80;99.90;;;;;;5033087;28;19905;-83
2023/04/24 11:46:28;;;;;;;;;;;12.00;99.90;;;;;;5015200;28;19909;-81
2023/04/24 11:48:54;;;;;;;;;;;12.00;99.90;;;;;;5040160;28;19963;-82
2023/04/24 11:51:19;;;;;;;;;;;11.90;99.90;;;;;;5034641;28;19913;-82
2023/04/24 11:53:45;;;;;;;;;;;11.80;99.90;;;;;;5033764;28;20332;-84
2023/04/24 11:56:10;;;;;;;;;;;11.70;99.90;;;;;;5015282;28;19909;-85
2023/04/24 11:58:37;;;;;;;;;;;11.60;99.90;;;;;;5015038;28;19927;-85
2023/04/24 12:01:04;;;;;;;;;;;11.60;99.90;;;;;;5023451;28;19960;-78
2023/04/24 12:03:30;;;;;;;;;;;11.60;99.90;;;;;;5027483;28;19986;-83
2023/04/24 12:06:08;;;;;;;;;;;11.40;99.90;;;;;;5028722;28;20356;-83
2023/04/24 12:08:34;;;;;;;;;;;11.40;99.90;;;;;;5028805;28;19924;-86
2023/04/24 12:11:04;;;;;;;;;;;11.40;99.90;;;;;;5030358;28;20291;-78
2023/04/24 12:13:30;;;;;;;;;;;11.60;99.90;;;;;;5011657;28;19916;-77
2023/04/24 12:15:59;;;;;;;;;;;11.50;99.90;;;;;;5024328;28;19909;-79
2023/04/24 12:18:24;;;;;;;;;;;11.50;99.90;;;;;;5012046;28;19909;-78
2023/04/24 12:20:50;;;;;;;;;;;11.60;99.90;;;;;;5026632;28;20326;-77
2023/04/24 12:23:16;;;;;;;;;;;11.60;99.90;;;;;;5024475;28;19913;-77
2023/04/24 12:25:41;;;;;;;;;;;11.50;99.90;;;;;;5001386;28;19925;-85
2023/04/24 12:28:11;;;;;;;;;;;11.60;99.90;;;;;;5018478;28;19917;-77
2023/04/24 12:30:51;;;;;;;;;;;11.60;99.90;;;;;;5007504;28;19937;-77
2023/04/24 12:33:19;;;;;;;;;;;11.50;99.90;;;;;;5025772;28;20012;-80
2023/04/24 12:35:45;;;;;;;;;;;11.60;99.90;;;;;;5009570;28;19920;-83
2023/04/24 12:38:12;;;;;;;;;;;11.60;99.90;;;;;;5020734;28;19909;-79
2023/04/24 12:40:38;;;;;;;;;;;11.70;99.90;;;;;;5006594;28;19970;-79
2023/04/24 12:43:17;;;;;;;;;;;11.70;99.90;;;;;;5021121;28;19905;-78
2023/04/24 12:45:44;;;;;;;;;;;11.70;99.90;;;;;;5028108;28;20272;-88
2023/04/24 12:48:09;;;;;;;;;;;11.70;99.90;;;;;;5023907;28;19909;-84
2023/04/24 12:50:35;;;;;;;;;;;11.70;99.90;;;;;;5015283;28;19954;-77
2023/04/24 12:53:00;;;;;;;;;;;11.60;99.90;;;;;;5009526;28;19909;-75
2023/04/24 12:55:33;;;;;;;;;;;11.40;99.90;;;;;;5025655;28;19963;-75
2023/04/24 12:57:59;;;;;;;;;;;11.30;99.90;;;;;;5020860;28;19926;-84
2023/04/24 13:00:25;;;;;;;;;;;11.40;99.90;;;;;;5013789;28;20279;-86
2023/04/24 13:02:50;;;;;;;;;;;11.60;99.90;;;;;;5026346;28;19970;-79
2023/04/24 13:05:16;;;;;;;;;;;11.80;99.90;;;;;;5008113;28;19905;-80
2023/04/24 13:07:42;;;;;;;;;;;12.00;99.90;;;;;;5025618;28;20409;-88
2023/04/24 13:10:08;;;;;;;;;;;12.30;99.90;;;;;;5023020;28;20002;-93
2023/04/24 13:12:34;;;;;;;;;;;12.70;99.90;;;;;;5017056;28;20000;-84
2023/04/24 13:15:00;;;;;;;;;;;12.70;99.90;;;;;;5036298;28;19917;-82
2023/04/24 13:17:25;;;;;;;;;;;12.40;99.90;;;;;;5037329;28;19980;-86
2023/04/24 13:19:51;;;;;;;;;;;12.30;99.90;;;;;;5017753;28;19905;-90
2023/04/24 13:22:19;;;;;;;;;;;12.00;99.90;;;;;;5010427;28;19985;-86
2023/04/24 13:24:48;;;;;;;;;;;11.80;99.90;;;;;;5018393;28;19928;-77
2023/04/24 13:27:14;;;;;;;;;;;11.50;99.90;;;;;;5027769;28;20070;-78
2023/04/24 13:29:42;;;;;;;;;;;11.40;99.90;;;;;;5015188;28;19918;-76
2023/04/24 13:32:08;;;;;;;;;;;11.40;99.90;;;;;;5025029;28;19964;-76
2023/04/24 13:34:41;;;;;;;;;;;11.30;99.90;;;;;;5008870;28;20355;-83
2023/04/24 13:37:07;;;;;;;;;;;11.30;99.90;;;;;;5014865;28;19912;-78
2023/04/24 13:39:33;;;;;;;;;;;11.30;99.90;;;;;;5013113;28;19943;-78
2023/04/24 13:41:58;;;;;;;;;;;11.30;99.90;;;;;;5026865;28;19928;-78
2023/04/24 13:44:24;;;;;;;;;;;11.30;99.90;;;;;;5028498;28;20234;-84
2023/04/24 13:46:52;;;;;;;;;;;11.60;99.90;;;;;;5012740;28;19909;-86
2023/04/24 13:49:17;;;;;;;;;;;11.70;99.90;;;;;;5008071;28;19909;-78
2023/04/24 13:51:46;;;;;;;;;;;11.70;99.90;;;;;;5025854;28;20344;-78
2023/04/24 13:54:12;;;;;;;;;;;11.60;99.90;;;;;;5024831;28;20043;-78
2023/04/24 13:56:38;;;;;;;;;;;11.70;99.90;;;;;;5027082;28;20007;-80
2023/04/24 13:59:04;;;;;;;;;;;11.80;99.90;;;;;;5008284;28;19916;-75
2023/04/24 14:01:30;;;;;;;;;;;12.00;99.90;;;;;;5029947;28;19913;-77
2023/04/24 14:03:56;;;;;;;;;;;12.20;99.90;;;;;;5000415;28;20316;-76
2023/04/24 14:06:22;;;;;;;;;;;12.50;99.90;;;;;;5023438;28;19905;-79
2023/04/24 14:08:50;;;;;;;;;;;12.60;99.90;;;;;;5027261;28;20622;-77
2023/04/24 14:11:16;;;;;;;;;;;12.60;99.90;;;;;;5025567;28;19912;-83
2023/04/24 14:13:42;;;;;;;;;;;12.40;99.90;;;;;;5023440;28;19913;-85